createdAt,value
2017-08-28T00:01:59.468Z,4.75
2017-08-28T00:04:26.979Z,4.65
2017-08-28T00:06:54.482Z,3.95
2017-08-28T00:09:21.984Z,5.07
2017-08-28T00:11:49.527Z,4.10
2017-08-28T00:14:17.028Z,4.25
2017-08-28T00:16:44.549Z,4.25
2017-08-28T00:19:12.066Z,4.20
2017-08-28T00:21:39.608Z,5.00
2017-08-28T00:24:07.100Z,3.92
2017-08-28T00:26:34.637Z,3.70
2017-08-28T00:29:02.149Z,4.70
2017-08-28T00:31:29.676Z,3.90
2017-08-28T00:33:57.176Z,4.20
2017-08-28T00:36:24.660Z,3.90
2017-08-28T00:38:52.175Z,4.15
2017-08-28T00:41:20.504Z,4.10
2017-08-28T00:43:48.017Z,3.50
2017-08-28T00:46:15.505Z,3.75
2017-08-28T00:48:43.010Z,4.80
2017-08-28T00:51:10.508Z,3.95
2017-08-28T00:53:38.022Z,4.07
2017-08-28T00:56:05.507Z,3.80
2017-08-28T00:58:33.018Z,3.75
2017-08-28T01:01:00.520Z,3.90
2017-08-28T01:03:28.032Z,3.90
2017-08-28T01:05:55.532Z,4.40
2017-08-28T01:08:23.066Z,4.18
2017-08-28T01:10:50.553Z,3.60
2017-08-28T01:13:18.097Z,3.78
2017-08-28T01:15:45.595Z,3.25
2017-08-28T01:18:13.106Z,4.57
2017-08-28T01:20:40.626Z,4.28
2017-08-28T01:23:08.126Z,4.97
2017-08-28T01:25:35.620Z,4.40
2017-08-28T01:28:03.122Z,3.75
2017-08-28T01:30:30.720Z,3.90
2017-08-28T01:32:58.219Z,4.00
2017-08-28T01:35:25.746Z,3.90
2017-08-28T01:37:53.275Z,3.75
2017-08-28T01:40:20.770Z,3.85
2017-08-28T01:42:48.274Z,3.65
2017-08-28T01:45:15.781Z,4.15
2017-08-28T01:47:43.294Z,4.18
2017-08-28T01:50:10.786Z,3.25
2017-08-28T01:52:38.313Z,3.55
2017-08-28T01:55:05.825Z,4.68
2017-08-28T01:57:33.327Z,4.65
2017-08-28T02:00:00.860Z,3.97
2017-08-28T02:02:28.345Z,4.70
2017-08-28T02:04:55.862Z,4.82
2017-08-28T02:07:23.414Z,4.37
2017-08-28T02:09:50.933Z,4.12
2017-08-28T02:12:18.440Z,4.40
2017-08-28T02:14:45.954Z,3.97
2017-08-28T02:17:13.439Z,3.72
2017-08-28T02:19:40.974Z,4.12
2017-08-28T02:22:08.480Z,3.80
2017-08-28T02:24:35.979Z,3.72
2017-08-28T02:27:03.466Z,3.95
2017-08-28T02:29:30.959Z,3.62
2017-08-28T02:31:58.464Z,4.75
2017-08-28T02:34:25.978Z,4.18
2017-08-28T02:36:53.652Z,4.87
2017-08-28T02:39:21.196Z,4.35
2017-08-28T02:41:48.685Z,5.05
2017-08-28T02:44:16.213Z,4.10
2017-08-28T02:46:43.754Z,3.70
2017-08-28T02:49:11.360Z,4.30
2017-08-28T02:51:38.870Z,4.10
2017-08-28T02:54:06.396Z,4.82
2017-08-28T02:56:33.925Z,4.60
2017-08-28T02:59:01.445Z,4.37
2017-08-28T03:01:28.968Z,3.70
2017-08-28T03:03:56.466Z,4.05
2017-08-28T03:06:23.948Z,4.25
2017-08-28T03:08:51.478Z,4.25
2017-08-28T03:11:18.973Z,4.85
2017-08-28T03:13:46.474Z,4.60
2017-08-28T03:22:57.650Z,3.97
2017-08-28T03:25:25.163Z,5.00
2017-08-28T03:27:52.663Z,4.78
2017-08-28T03:30:20.177Z,4.22
2017-08-28T03:32:47.692Z,4.65
2017-08-28T03:35:15.193Z,3.60
2017-08-28T03:37:42.699Z,3.90
2017-08-28T03:40:10.205Z,4.95
2017-08-28T03:42:37.718Z,5.18
2017-08-28T03:45:05.233Z,3.78
2017-08-28T03:47:32.752Z,3.78
2017-08-28T03:50:00.293Z,4.25
2017-08-28T03:52:27.827Z,4.28
2017-08-28T03:54:55.328Z,4.20
2017-08-28T03:57:22.843Z,4.75
2017-08-28T03:59:50.342Z,4.40
2017-08-28T04:02:17.870Z,4.50
2017-08-28T04:04:45.380Z,5.05
2017-08-28T04:07:12.875Z,4.95
2017-08-28T04:09:40.369Z,4.30
2017-08-28T04:12:07.871Z,3.95
2017-08-28T04:14:35.389Z,4.12
2017-08-28T04:17:02.906Z,4.78
2017-08-28T04:19:30.444Z,4.50
2017-08-28T04:21:57.943Z,4.50
2017-08-28T04:24:25.426Z,4.37
2017-08-28T04:26:53.167Z,3.87
2017-08-28T04:29:20.705Z,3.80
2017-08-28T04:31:48.220Z,5.07
2017-08-28T04:34:15.755Z,5.40
2017-08-28T04:36:43.280Z,4.62
2017-08-28T04:39:10.788Z,4.70
2017-08-28T04:41:38.324Z,5.57
2017-08-28T04:44:05.810Z,7.90
2017-08-28T04:46:33.337Z,6.10
2017-08-28T04:49:00.816Z,6.07
2017-08-28T04:51:28.318Z,4.80
2017-08-28T04:53:55.842Z,5.07
2017-08-28T04:56:23.404Z,10.05
2017-08-28T04:58:50.912Z,9.50
2017-08-28T05:01:18.442Z,7.20
2017-08-28T05:03:45.948Z,6.07
2017-08-28T05:06:13.533Z,5.12
2017-08-28T05:08:41.021Z,5.62
2017-08-28T05:11:08.519Z,5.00
2017-08-28T05:13:36.060Z,4.72
2017-08-28T05:16:03.580Z,4.90
2017-08-28T05:18:31.701Z,5.15
2017-08-28T05:20:59.220Z,5.97
2017-08-28T05:23:26.745Z,4.90
2017-08-28T05:25:54.240Z,4.80
2017-08-28T05:28:21.748Z,4.72
2017-08-28T05:30:49.280Z,5.10
2017-08-28T05:33:16.800Z,4.10
2017-08-28T05:35:44.329Z,6.40
2017-08-28T05:38:11.828Z,4.85
2017-08-28T05:40:39.360Z,4.65
2017-08-28T05:43:06.917Z,5.07
2017-08-28T05:45:34.415Z,5.25
2017-08-28T05:48:02.321Z,5.47
2017-08-28T05:50:29.827Z,5.57
2017-08-28T05:52:57.462Z,5.32
2017-08-28T05:55:24.945Z,5.00
2017-08-28T05:57:52.476Z,4.55
2017-08-28T06:00:19.983Z,6.57
2017-08-28T06:02:47.491Z,5.43
2017-08-28T06:05:15.026Z,5.35
2017-08-28T06:07:42.513Z,7.50
2017-08-28T06:10:09.996Z,5.47
2017-08-28T06:12:37.512Z,6.40
2017-08-28T06:15:05.070Z,6.32
2017-08-28T06:17:32.617Z,6.43
2017-08-28T06:20:00.199Z,5.20
2017-08-28T06:22:27.719Z,5.97
2017-08-28T06:24:55.240Z,6.05
2017-08-28T06:27:22.781Z,6.97
2017-08-28T06:29:50.290Z,7.20
2017-08-28T06:32:17.813Z,6.25
2017-08-28T06:34:45.337Z,6.05
2017-08-28T06:37:12.834Z,7.30
2017-08-28T06:39:40.400Z,6.80
2017-08-28T06:42:07.907Z,7.15
2017-08-28T06:44:35.415Z,6.75
2017-08-28T06:47:02.934Z,5.85
2017-08-28T06:49:30.448Z,5.62
2017-08-28T06:51:57.950Z,6.60
2017-08-28T06:54:25.501Z,5.97
2017-08-28T06:56:53.021Z,6.50
2017-08-28T06:59:20.586Z,7.22
2017-08-28T07:01:48.123Z,6.40
2017-08-28T07:04:15.625Z,5.45
2017-08-28T07:06:43.117Z,5.18
2017-08-28T07:09:10.644Z,5.70
2017-08-28T07:11:38.156Z,5.75
2017-08-28T07:14:05.709Z,6.15
2017-08-28T07:16:33.255Z,5.47
2017-08-28T07:19:00.777Z,6.35
2017-08-28T07:21:28.298Z,6.28
2017-08-28T07:23:55.788Z,6.87
2017-08-28T07:26:23.306Z,5.85
2017-08-28T07:28:50.788Z,5.55
2017-08-28T07:31:18.316Z,5.37
2017-08-28T07:33:45.810Z,7.00
2017-08-28T07:36:13.446Z,5.75
2017-08-28T07:38:41.002Z,7.37
2017-08-28T07:41:08.504Z,5.18
2017-08-28T07:43:37.654Z,14.40
2017-08-28T07:46:05.188Z,10.95
2017-08-28T07:48:32.683Z,5.18
2017-08-28T07:51:00.186Z,5.93
2017-08-28T07:53:27.738Z,5.05
2017-08-28T07:55:55.272Z,6.43
2017-08-28T07:58:22.785Z,13.13
2017-08-28T08:00:50.290Z,5.32
2017-08-28T08:03:17.797Z,5.03
2017-08-28T08:05:45.301Z,5.07
2017-08-28T08:08:12.820Z,5.25
2017-08-28T08:10:40.352Z,5.93
2017-08-28T08:13:07.883Z,5.87
2017-08-28T08:15:35.398Z,6.18
2017-08-28T08:18:02.909Z,5.72
2017-08-28T08:20:30.400Z,5.95
2017-08-28T08:22:57.914Z,5.40
2017-08-28T08:25:25.626Z,3.70
2017-08-28T08:27:53.150Z,4.70
2017-08-28T08:30:20.668Z,4.03
2017-08-28T08:32:48.179Z,3.60
2017-08-28T08:35:15.710Z,4.20
2017-08-28T08:37:43.502Z,5.25
2017-08-28T08:40:11.036Z,4.57
2017-08-28T08:42:38.530Z,4.03
2017-08-28T08:45:06.050Z,4.15
2017-08-28T08:47:33.575Z,3.40
2017-08-28T08:50:01.077Z,4.22
2017-08-28T08:52:28.589Z,5.18
2017-08-28T08:54:56.138Z,3.15
2017-08-28T08:57:23.652Z,5.05
2017-08-28T08:59:51.153Z,3.80
2017-08-28T09:02:18.789Z,4.03
2017-08-28T09:04:46.322Z,3.50
2017-08-28T09:07:13.820Z,3.92
2017-08-28T09:09:41.321Z,3.92
2017-08-28T09:12:08.828Z,4.18
2017-08-28T09:14:36.335Z,3.47
2017-08-28T09:17:03.861Z,3.42
2017-08-28T09:19:31.363Z,4.55
2017-08-28T09:21:58.874Z,4.50
2017-08-28T09:24:26.396Z,4.40
2017-08-28T09:26:53.882Z,3.95
2017-08-28T09:29:21.415Z,4.32
2017-08-28T09:31:48.939Z,4.15
2017-08-28T09:34:16.465Z,4.07
2017-08-28T09:36:43.966Z,3.70
2017-08-28T09:39:11.473Z,4.43
2017-08-28T09:41:39.001Z,3.20
2017-08-28T09:44:06.574Z,3.80
2017-08-28T09:46:34.099Z,3.87
2017-08-28T09:49:01.609Z,3.45
2017-08-28T09:51:29.116Z,2.65
2017-08-28T09:53:56.618Z,2.78
2017-08-28T09:56:24.143Z,3.03
2017-08-28T09:58:52.435Z,2.90
2017-08-28T10:01:20.000Z,2.80
2017-08-28T10:03:47.526Z,3.45
2017-08-28T10:06:15.045Z,3.05
2017-08-28T10:08:42.545Z,2.50
2017-08-28T10:11:10.066Z,2.40
2017-08-28T10:13:37.605Z,2.00
2017-08-28T10:16:05.807Z,1.73
2017-08-28T10:18:33.335Z,2.42
2017-08-28T10:21:00.834Z,1.80
2017-08-28T10:23:28.356Z,2.78
2017-08-28T10:25:55.851Z,2.53
2017-08-28T10:28:23.369Z,3.40
2017-08-28T10:30:50.895Z,2.40
2017-08-28T10:33:18.384Z,2.47
2017-08-28T10:35:45.918Z,1.80
2017-08-28T10:38:13.477Z,2.30
2017-08-28T10:40:40.998Z,2.03
2017-08-28T10:43:08.515Z,1.98
2017-08-28T10:45:36.017Z,2.45
2017-08-28T10:48:03.529Z,2.45
2017-08-28T10:50:31.728Z,1.90
2017-08-28T10:53:16.036Z,5.80
2017-08-28T10:55:43.608Z,1.50
2017-08-28T10:58:11.088Z,2.05
2017-08-28T11:00:38.664Z,1.85
2017-08-28T11:03:06.171Z,1.62
2017-08-28T11:05:33.714Z,1.40
2017-08-28T11:08:01.244Z,1.40
2017-08-28T11:10:28.753Z,1.77
2017-08-28T11:12:56.254Z,4.40
2017-08-28T11:15:23.838Z,1.75
2017-08-28T11:17:51.395Z,1.87
2017-08-28T11:20:18.914Z,1.23
2017-08-28T11:22:46.439Z,2.08
2017-08-28T11:25:13.947Z,2.97
2017-08-28T11:27:41.552Z,2.35
2017-08-28T11:30:09.055Z,2.28
2017-08-28T11:32:36.585Z,1.83
2017-08-28T11:35:04.148Z,1.70
2017-08-28T11:37:31.645Z,1.70
2017-08-28T11:39:59.147Z,2.20
2017-08-28T11:42:26.667Z,1.87
2017-08-28T11:44:54.970Z,1.85
2017-08-28T11:47:22.522Z,2.12
2017-08-28T11:49:50.019Z,1.67
2017-08-28T11:52:17.526Z,1.80
2017-08-28T11:54:45.043Z,2.15
2017-08-28T11:57:12.559Z,1.40
2017-08-28T11:59:40.099Z,1.50
2017-08-28T12:02:07.615Z,2.37
2017-08-28T12:04:35.174Z,1.85
2017-08-28T12:07:02.676Z,2.35
2017-08-28T12:09:30.175Z,1.83
2017-08-28T12:11:57.677Z,2.10
2017-08-28T12:14:25.229Z,1.65
2017-08-28T12:16:52.772Z,1.42
2017-08-28T12:19:20.310Z,2.20
2017-08-28T12:21:47.812Z,1.10
2017-08-28T12:24:15.330Z,1.92
2017-08-28T12:26:42.871Z,2.08
2017-08-28T12:29:10.394Z,1.90
2017-08-28T12:31:37.926Z,1.40
2017-08-28T12:34:05.429Z,1.35
2017-08-28T12:36:32.920Z,2.30
2017-08-28T12:39:00.522Z,1.55
2017-08-28T12:41:28.057Z,1.40
2017-08-28T12:43:55.570Z,1.60
2017-08-28T12:46:23.086Z,1.90
2017-08-28T12:48:50.620Z,1.70
2017-08-28T12:51:18.154Z,2.75
2017-08-28T12:53:45.640Z,1.60
2017-08-28T12:56:13.187Z,2.75
2017-08-28T12:58:40.694Z,2.22
2017-08-28T13:01:08.211Z,1.80
2017-08-28T13:03:35.706Z,1.15
2017-08-28T13:06:03.244Z,2.10
2017-08-28T13:08:30.784Z,1.70
2017-08-28T13:10:58.307Z,1.80
2017-08-28T13:13:25.877Z,1.70
2017-08-28T13:15:53.377Z,2.08
2017-08-28T13:18:20.884Z,1.50
2017-08-28T13:20:48.399Z,1.60
2017-08-28T13:23:15.890Z,1.83
2017-08-28T13:25:43.393Z,1.70
2017-08-28T13:28:10.926Z,2.60
2017-08-28T13:30:38.434Z,1.40
2017-08-28T13:33:05.935Z,1.58
2017-08-28T13:35:33.469Z,1.77
2017-08-28T13:38:01.040Z,1.33
2017-08-28T13:40:28.553Z,2.05
2017-08-28T13:42:56.073Z,2.15
2017-08-28T13:45:23.585Z,1.80
2017-08-28T13:47:51.104Z,1.40
2017-08-28T13:50:18.634Z,1.80
2017-08-28T13:52:46.139Z,1.83
2017-08-28T13:55:13.647Z,1.75
2017-08-28T13:57:41.160Z,2.05
2017-08-28T14:00:08.665Z,2.00
2017-08-28T14:02:36.233Z,1.50
2017-08-28T14:05:03.751Z,1.70
2017-08-28T14:07:31.295Z,1.90
2017-08-28T14:09:58.835Z,2.55
2017-08-28T14:12:26.345Z,2.70
2017-08-28T14:14:53.876Z,2.20
2017-08-28T14:17:21.399Z,2.08
2017-08-28T14:19:48.902Z,1.90
2017-08-28T14:22:16.434Z,2.80
2017-08-28T14:24:43.934Z,1.90
2017-08-28T14:27:11.463Z,2.08
2017-08-28T14:29:38.978Z,2.22
2017-08-28T14:32:06.498Z,2.60
2017-08-28T14:34:34.178Z,1.95
2017-08-28T14:37:01.698Z,1.90
2017-08-28T14:39:29.248Z,1.70
2017-08-28T14:41:56.745Z,1.45
2017-08-28T14:44:24.265Z,2.00
2017-08-28T14:46:51.796Z,1.65
2017-08-28T14:49:19.298Z,2.05
2017-08-28T14:51:46.839Z,2.05
2017-08-28T14:54:14.393Z,2.55
2017-08-28T14:56:41.987Z,2.05
2017-08-28T14:59:09.513Z,2.75
2017-08-28T15:01:37.049Z,2.40
2017-08-28T15:04:04.609Z,2.45
2017-08-28T15:06:32.151Z,1.70
2017-08-28T15:08:59.697Z,1.87
2017-08-28T15:11:27.241Z,1.52
2017-08-28T15:13:54.776Z,1.87
2017-08-28T15:16:22.287Z,1.90
2017-08-28T15:18:49.791Z,1.80
2017-08-28T15:21:17.325Z,1.35
2017-08-28T15:23:44.824Z,1.15
2017-08-28T15:26:12.347Z,1.40
2017-08-28T15:28:39.881Z,1.25
2017-08-28T15:31:07.431Z,2.80
2017-08-28T15:33:34.963Z,1.27
2017-08-28T15:36:02.466Z,2.12
2017-08-28T15:38:30.004Z,1.70
2017-08-28T15:40:57.526Z,1.80
2017-08-28T15:43:25.071Z,1.37
2017-08-28T15:45:52.631Z,2.05
2017-08-28T15:48:20.232Z,1.65
2017-08-28T15:50:47.753Z,2.40
2017-08-28T15:53:15.331Z,2.30
2017-08-28T15:55:42.839Z,1.80
2017-08-28T15:58:10.352Z,1.85
2017-08-28T16:00:37.861Z,2.25
2017-08-28T16:03:05.417Z,1.67
2017-08-28T16:05:32.922Z,1.95
2017-08-28T16:08:00.507Z,1.45
2017-08-28T16:10:28.054Z,1.75
2017-08-28T16:12:55.547Z,2.58
2017-08-28T16:15:23.098Z,1.67
2017-08-28T16:17:53.614Z,1.50
2017-08-28T16:20:21.156Z,1.50
2017-08-28T16:22:48.646Z,1.45
2017-08-28T16:25:16.169Z,2.17
2017-08-28T16:27:48.770Z,1.70
2017-08-28T16:30:16.298Z,1.40
2017-08-28T16:32:43.845Z,1.20
2017-08-28T16:35:11.351Z,1.73
2017-08-28T16:37:38.821Z,1.67
2017-08-28T16:40:07.560Z,1.40
2017-08-28T16:42:35.079Z,1.70
2017-08-28T16:45:02.628Z,1.58
2017-08-28T16:47:30.141Z,1.40
2017-08-28T16:49:57.787Z,1.55
2017-08-28T16:52:25.352Z,1.35
2017-08-28T16:54:52.882Z,1.40
2017-08-28T16:57:20.473Z,1.60
2017-08-28T16:59:48.001Z,1.30
2017-08-28T17:02:15.517Z,7.68
2017-08-28T17:04:43.123Z,1.70
2017-08-28T17:07:10.642Z,1.40
2017-08-28T17:09:45.040Z,1.67
2017-08-28T17:12:12.591Z,2.08
2017-08-28T17:14:41.078Z,1.58
2017-08-28T17:17:08.612Z,1.30
2017-08-28T17:19:36.133Z,1.95
2017-08-28T17:22:03.664Z,2.30
2017-08-28T17:24:31.185Z,2.55
2017-08-28T17:26:58.684Z,1.45
2017-08-28T17:29:26.567Z,1.80
2017-08-28T17:31:54.064Z,1.60
2017-08-28T17:34:21.587Z,2.42
2017-08-28T17:36:49.091Z,1.40
2017-08-28T17:39:16.613Z,1.40
2017-08-28T17:41:44.137Z,1.20
2017-08-28T17:44:11.633Z,2.17
2017-08-28T17:46:39.187Z,1.40
2017-08-28T17:49:06.753Z,2.80
2017-08-28T17:51:34.353Z,2.60
2017-08-28T17:54:01.878Z,2.80
2017-08-28T17:56:29.399Z,2.40
2017-08-28T17:58:56.946Z,1.98
2017-08-28T18:01:24.521Z,3.03
2017-08-28T18:03:52.053Z,2.70
2017-08-28T18:06:19.573Z,3.50
2017-08-28T18:08:47.160Z,2.12
2017-08-28T18:11:14.697Z,2.90
2017-08-28T18:13:42.182Z,2.67
2017-08-28T18:16:09.719Z,2.78
2017-08-28T18:18:37.239Z,4.10
2017-08-28T18:21:04.736Z,3.08
2017-08-28T18:23:32.304Z,2.90
2017-08-28T18:25:59.827Z,3.55
2017-08-28T18:28:27.374Z,4.28
2017-08-28T18:30:54.873Z,4.45
2017-08-28T18:33:22.586Z,4.75
2017-08-28T18:35:50.125Z,4.57
2017-08-28T18:38:17.683Z,6.07
2017-08-28T18:40:45.189Z,4.62
2017-08-28T18:43:12.697Z,4.97
2017-08-28T18:45:40.222Z,4.12
2017-08-28T18:48:07.712Z,4.40
2017-08-28T18:50:35.254Z,4.65
2017-08-28T18:53:02.858Z,4.35
2017-08-28T18:55:30.377Z,4.00
2017-08-28T18:57:57.908Z,3.62
2017-08-28T19:00:25.415Z,5.68
2017-08-28T19:02:52.935Z,4.70
2017-08-28T19:05:20.448Z,5.40
2017-08-28T19:07:47.970Z,5.90
2017-08-28T19:10:15.522Z,6.28
2017-08-28T19:12:43.051Z,5.93
2017-08-28T19:15:10.577Z,7.00
2017-08-28T19:17:38.140Z,5.80
2017-08-28T19:20:05.792Z,8.07
2017-08-28T19:22:33.319Z,5.45
2017-08-28T19:25:00.839Z,6.10
2017-08-28T19:27:28.506Z,5.25
2017-08-28T19:29:56.026Z,6.43
2017-08-28T19:32:23.581Z,5.37
2017-08-28T19:34:57.512Z,6.05
2017-08-28T19:37:25.153Z,6.57
2017-08-28T19:39:52.731Z,5.40
2017-08-28T19:42:20.230Z,6.95
2017-08-28T19:44:47.936Z,6.85
2017-08-28T19:47:15.445Z,6.75
2017-08-28T19:49:43.057Z,7.07
2017-08-28T19:52:10.593Z,6.78
2017-08-28T19:54:38.213Z,6.25
2017-08-28T19:57:05.728Z,6.40
2017-08-28T19:59:33.265Z,6.60
2017-08-28T20:02:00.788Z,6.65
2017-08-28T20:04:28.456Z,6.90
2017-08-28T20:06:56.007Z,6.37
2017-08-28T20:09:33.034Z,7.10
2017-08-28T20:12:00.607Z,7.12
2017-08-28T20:14:28.133Z,6.93
2017-08-28T20:16:55.621Z,7.12
2017-08-28T20:19:23.192Z,7.78
2017-08-28T20:21:50.747Z,9.50
2017-08-28T20:24:18.283Z,10.30
2017-08-28T20:26:45.927Z,10.63
2017-08-28T20:29:13.477Z,10.55
2017-08-28T20:31:41.059Z,10.85
2017-08-28T20:34:09.353Z,10.07
2017-08-28T20:36:36.956Z,11.02
2017-08-28T20:39:04.704Z,11.95
2017-08-28T20:41:32.880Z,12.93
2017-08-28T20:44:00.427Z,13.40
2017-08-28T20:46:27.985Z,12.90
2017-08-28T20:48:55.521Z,13.40
2017-08-28T20:51:23.049Z,11.90
2017-08-28T20:53:50.613Z,11.85
2017-08-28T20:56:18.152Z,12.07
2017-08-28T20:58:45.680Z,11.45
2017-08-28T21:01:13.192Z,11.38
2017-08-28T21:03:40.743Z,11.77
2017-08-28T21:06:08.273Z,10.95
2017-08-28T21:08:35.790Z,10.77
2017-08-28T21:11:03.330Z,11.32
2017-08-28T21:13:30.885Z,11.02
2017-08-28T21:15:58.441Z,9.82
2017-08-28T21:18:25.960Z,12.02
2017-08-28T21:20:53.494Z,11.63
2017-08-28T21:23:21.095Z,9.65
2017-08-28T21:25:48.600Z,8.90
2017-08-28T21:28:16.137Z,9.27
2017-08-28T21:30:43.729Z,8.90
2017-08-28T21:33:11.219Z,9.77
2017-08-28T21:35:38.864Z,8.25
2017-08-28T21:38:06.391Z,7.65
2017-08-28T21:40:33.890Z,10.40
2017-08-28T21:43:01.415Z,7.68
2017-08-28T21:45:28.935Z,8.20
2017-08-28T21:47:56.493Z,7.60
2017-08-28T21:50:24.029Z,9.65
2017-08-28T21:52:51.570Z,9.10
2017-08-28T21:55:19.095Z,7.82
2017-08-28T21:57:46.597Z,8.57
2017-08-28T22:00:14.095Z,8.50
2017-08-28T22:02:41.657Z,7.93
2017-08-28T22:05:09.275Z,8.73
2017-08-28T22:07:36.778Z,8.32
2017-08-28T22:10:04.304Z,8.18
2017-08-28T22:12:31.815Z,10.95
2017-08-28T22:14:59.339Z,8.80
2017-08-28T22:17:26.895Z,8.60
2017-08-28T22:19:54.398Z,8.10
2017-08-28T22:22:21.932Z,8.18
2017-08-28T22:24:49.457Z,9.20
2017-08-28T22:27:16.952Z,7.45
2017-08-28T22:29:44.464Z,9.07
2017-08-28T22:32:11.959Z,8.90
2017-08-28T22:34:39.474Z,8.85
2017-08-28T22:37:07.115Z,9.35
2017-08-28T22:39:34.762Z,8.90
2017-08-28T22:42:03.292Z,8.73
2017-08-28T22:44:30.851Z,8.23
2017-08-28T22:46:58.404Z,7.40
2017-08-28T22:49:25.914Z,9.00
2017-08-28T22:51:53.499Z,8.43
2017-08-28T22:54:21.110Z,7.87
2017-08-28T22:56:48.681Z,8.40
2017-08-28T22:59:16.234Z,8.20
2017-08-28T23:01:43.757Z,7.85
2017-08-28T23:04:11.336Z,7.60
2017-08-28T23:06:38.850Z,8.48
2017-08-28T23:09:06.373Z,7.05
2017-08-28T23:11:33.897Z,9.95
2017-08-28T23:14:01.496Z,7.90
2017-08-28T23:16:29.003Z,9.45
2017-08-28T23:18:56.530Z,7.60
2017-08-28T23:21:24.058Z,8.50
2017-08-28T23:23:51.593Z,7.70
2017-08-28T23:26:19.124Z,8.02
2017-08-28T23:28:46.749Z,7.68
2017-08-28T23:31:14.279Z,8.13
2017-08-28T23:33:41.799Z,7.90
2017-08-28T23:36:09.608Z,8.10
2017-08-28T23:38:37.112Z,8.05
2017-08-28T23:41:04.593Z,8.77
2017-08-28T23:43:32.098Z,8.13
2017-08-28T23:45:59.631Z,9.10
2017-08-28T23:48:27.158Z,8.65
2017-08-28T23:50:54.671Z,7.55
2017-08-28T23:53:22.215Z,7.82
2017-08-28T23:55:49.842Z,9.38
2017-08-28T23:58:17.421Z,8.10
